createdAt,value
2022-11-03T00:01:36.358Z,18.43
2022-11-03T00:04:06.530Z,19.80
2022-11-03T00:06:33.570Z,19.43
2022-11-03T00:09:02.999Z,22.70
2022-11-03T00:11:29.542Z,24.13
2022-11-03T00:13:56.999Z,28.70
2022-11-03T00:16:24.016Z,18.57
2022-11-03T00:18:51.708Z,23.13
2022-11-03T00:21:18.232Z,20.87
2022-11-03T00:23:44.990Z,20.33
2022-11-03T00:26:18.929Z,20.80
2022-11-03T00:28:46.973Z,24.50
2022-11-03T00:31:15.332Z,13.77
2022-11-03T00:33:42.974Z,22.63
2022-11-03T00:36:15.610Z,23.20
2022-11-03T00:38:43.223Z,21.93
2022-11-03T00:41:10.244Z,19.73
2022-11-03T00:43:37.117Z,23.40
2022-11-03T00:46:07.831Z,21.63
2022-11-03T00:48:36.174Z,14.93
2022-11-03T00:51:08.623Z,17.27
2022-11-03T00:53:40.360Z,18.90
2022-11-03T00:56:09.573Z,15.33
2022-11-03T00:58:36.173Z,14.63
2022-11-03T01:01:05.814Z,20.77
2022-11-03T01:03:33.839Z,17.43
2022-11-03T01:06:19.669Z,13.97
2022-11-03T01:08:46.798Z,13.00
2022-11-03T01:11:34.658Z,21.47
2022-11-03T01:14:01.450Z,16.67
2022-11-03T01:16:29.375Z,23.27
2022-11-03T01:18:55.858Z,18.63
2022-11-03T01:21:22.660Z,15.03
2022-11-03T01:23:49.269Z,15.63
2022-11-03T01:26:16.137Z,15.23
2022-11-03T01:28:46.695Z,13.00
2022-11-03T01:31:18.189Z,16.50
2022-11-03T01:33:47.800Z,16.53
2022-11-03T01:36:15.318Z,16.20
2022-11-03T01:38:42.263Z,18.87
2022-11-03T01:41:11.609Z,16.77
2022-11-03T01:43:39.483Z,13.30
2022-11-03T01:46:27.357Z,23.57
2022-11-03T01:49:07.286Z,18.63
2022-11-03T01:51:34.945Z,12.27
2022-11-03T01:54:05.803Z,16.73
2022-11-03T01:56:34.612Z,12.30
2022-11-03T01:59:01.604Z,19.83
2022-11-03T02:01:28.459Z,17.30
2022-11-03T02:04:00.140Z,16.60
2022-11-03T02:06:27.996Z,23.67
2022-11-03T02:09:05.745Z,13.60
2022-11-03T02:11:54.140Z,15.27
2022-11-03T02:14:20.668Z,15.77
2022-11-03T02:16:53.986Z,18.40
2022-11-03T02:19:34.511Z,25.53
2022-11-03T02:22:30.543Z,17.03
2022-11-03T02:25:07.183Z,15.37
2022-11-03T02:27:34.925Z,22.97
2022-11-03T02:30:01.412Z,18.47
2022-11-03T02:32:42.242Z,24.37
2022-11-03T02:35:25.567Z,19.80
2022-11-03T02:37:55.152Z,23.70
2022-11-03T02:40:34.587Z,20.50
2022-11-03T02:43:02.189Z,25.60
2022-11-03T02:45:28.784Z,26.13
2022-11-03T02:47:58.819Z,22.90
2022-11-03T02:50:29.851Z,30.27
2022-11-03T02:52:56.805Z,31.43
2022-11-03T02:55:41.292Z,25.63
2022-11-03T02:58:13.882Z,25.40
2022-11-03T03:00:54.402Z,25.37
2022-11-03T03:03:29.355Z,29.40
2022-11-03T03:06:03.621Z,25.67
2022-11-03T03:08:30.532Z,29.63
2022-11-03T03:11:00.124Z,26.40
2022-11-03T03:13:27.245Z,29.83
2022-11-03T03:16:06.084Z,29.20
2022-11-03T03:18:48.982Z,35.13
2022-11-03T03:21:21.557Z,29.07
2022-11-03T03:23:52.106Z,33.80
2022-11-03T03:26:24.312Z,36.33
2022-11-03T03:28:54.592Z,29.30
2022-11-03T03:31:22.300Z,32.93
2022-11-03T03:33:53.278Z,31.30
2022-11-03T03:36:25.622Z,41.73
2022-11-03T03:38:57.360Z,37.37
2022-11-03T03:41:25.656Z,36.07
2022-11-03T03:43:57.429Z,30.90
2022-11-03T03:46:27.199Z,33.37
2022-11-03T03:48:53.661Z,31.77
2022-11-03T03:51:23.853Z,26.43
2022-11-03T03:53:55.090Z,32.47
2022-11-03T03:56:27.394Z,35.63
2022-11-03T03:58:54.102Z,33.97
2022-11-03T04:01:20.633Z,36.53
2022-11-03T04:03:47.134Z,34.73
2022-11-03T04:06:13.729Z,37.33
2022-11-03T04:08:40.144Z,33.60
2022-11-03T04:11:26.774Z,35.37
2022-11-03T04:14:26.293Z,27.23
2022-11-03T04:17:11.334Z,33.50
2022-11-03T04:19:56.439Z,29.43
2022-11-03T04:22:25.550Z,34.20
2022-11-03T04:24:52.561Z,33.93
2022-11-03T04:27:27.042Z,31.80
2022-11-03T04:29:57.319Z,35.10
2022-11-03T04:32:23.805Z,34.00
2022-11-03T04:34:50.207Z,33.17
2022-11-03T04:37:17.166Z,28.70
2022-11-03T04:42:22.298Z,35.50
2022-11-03T04:44:49.367Z,37.53
2022-11-03T04:47:17.101Z,35.07
2022-11-03T04:49:44.752Z,39.33
2022-11-03T04:52:20.183Z,29.57
2022-11-03T04:54:48.531Z,35.63
2022-11-03T04:57:16.637Z,35.90
2022-11-03T04:59:45.347Z,32.27
2022-11-03T05:02:14.385Z,32.63
2022-11-03T05:04:41.815Z,33.03
2022-11-03T05:07:21.935Z,34.43
2022-11-03T05:09:48.888Z,36.27
2022-11-03T05:12:15.516Z,30.97
2022-11-03T05:14:42.042Z,30.20
2022-11-03T05:17:28.229Z,26.70
2022-11-03T05:20:02.136Z,30.57
2022-11-03T05:22:32.045Z,36.77
2022-11-03T05:25:03.876Z,30.83
2022-11-03T05:27:30.485Z,32.47
2022-11-03T05:30:00.787Z,33.60
2022-11-03T05:32:30.226Z,27.40
2022-11-03T05:34:56.951Z,24.03
2022-11-03T05:37:27.887Z,41.37
2022-11-03T05:40:15.150Z,32.50
2022-11-03T05:42:42.890Z,33.27
2022-11-03T05:45:16.388Z,32.57
2022-11-03T05:47:43.017Z,34.93
2022-11-03T05:50:19.716Z,41.83
2022-11-03T05:52:47.816Z,32.87
2022-11-03T05:55:28.538Z,35.60
2022-11-03T05:57:59.880Z,30.77
2022-11-03T06:00:37.585Z,36.77
2022-11-03T06:03:05.159Z,31.20
2022-11-03T06:05:33.601Z,28.30
2022-11-03T06:08:03.469Z,32.00
2022-11-03T06:10:34.365Z,29.93
2022-11-03T06:13:05.297Z,27.60
2022-11-03T06:15:34.709Z,29.67
2022-11-03T06:18:03.073Z,30.37
2022-11-03T06:20:29.542Z,33.13
2022-11-03T06:22:57.209Z,26.77
2022-11-03T06:25:32.638Z,30.60
2022-11-03T06:28:05.324Z,35.47
2022-11-03T06:30:34.083Z,24.63
2022-11-03T06:33:06.704Z,34.00
2022-11-03T06:35:34.961Z,44.03
2022-11-03T06:38:01.606Z,30.47
2022-11-03T06:40:34.883Z,30.30
2022-11-03T06:43:17.091Z,29.63
2022-11-03T06:45:50.004Z,29.27
2022-11-03T06:48:22.396Z,24.33
2022-11-03T06:50:48.887Z,32.87
2022-11-03T06:53:21.790Z,28.83
2022-11-03T06:55:48.949Z,34.20
2022-11-03T06:58:19.369Z,31.30
2022-11-03T07:00:50.951Z,32.40
2022-11-03T07:03:24.256Z,30.10
2022-11-03T07:05:51.344Z,38.30
2022-11-03T07:08:22.640Z,30.57
2022-11-03T07:11:01.106Z,30.80
2022-11-03T07:13:28.540Z,33.03
2022-11-03T07:15:55.035Z,33.97
2022-11-03T07:18:28.758Z,26.13
2022-11-03T07:20:55.992Z,31.33
2022-11-03T07:23:29.111Z,27.97
2022-11-03T07:26:00.159Z,37.30
2022-11-03T07:28:36.656Z,35.57
2022-11-03T07:31:16.262Z,30.63
2022-11-03T07:33:44.048Z,30.27
2022-11-03T07:36:16.977Z,32.00
2022-11-03T07:38:46.291Z,28.37
2022-11-03T07:41:18.936Z,21.33
2022-11-03T07:43:52.701Z,21.30
2022-11-03T07:46:20.836Z,29.50
2022-11-03T07:48:49.193Z,30.70
2022-11-03T07:51:48.563Z,19.83
2022-11-03T07:54:25.847Z,21.47
2022-11-03T07:57:03.067Z,30.43
2022-11-03T07:59:42.533Z,18.30
2022-11-03T08:02:28.190Z,30.53
2022-11-03T08:04:54.938Z,20.00
2022-11-03T08:07:21.592Z,16.87
2022-11-03T08:09:48.143Z,16.17
2022-11-03T08:12:14.877Z,17.80
2022-11-03T08:14:41.754Z,14.67
2022-11-03T08:17:08.744Z,18.20
2022-11-03T08:19:35.488Z,14.13
2022-11-03T08:22:02.253Z,12.93
2022-11-03T08:24:29.090Z,12.63
2022-11-03T08:26:55.645Z,17.50
2022-11-03T08:29:22.597Z,20.60
2022-11-03T08:31:49.357Z,15.20
2022-11-03T08:34:16.005Z,16.80
2022-11-03T08:36:42.697Z,16.07
2022-11-03T08:39:09.297Z,14.67
2022-11-03T08:41:36.225Z,16.07
2022-11-03T08:44:03.058Z,15.33
2022-11-03T08:46:29.734Z,13.43
2022-11-03T08:48:56.299Z,17.87
2022-11-03T08:51:22.742Z,12.07
2022-11-03T08:53:53.961Z,13.53
2022-11-03T08:56:22.613Z,13.47
2022-11-03T08:58:49.660Z,16.73
2022-11-03T09:01:16.271Z,13.17
2022-11-03T09:03:43.336Z,14.63
2022-11-03T09:06:10.142Z,12.50
2022-11-03T09:11:23.507Z,14.90
2022-11-03T09:13:51.342Z,17.13
2022-11-03T09:16:18.081Z,15.70
2022-11-03T09:18:45.726Z,16.30
2022-11-03T09:21:13.665Z,20.07
2022-11-03T09:23:40.570Z,18.67
2022-11-03T09:26:09.534Z,15.47
2022-11-03T09:28:36.017Z,18.17
2022-11-03T09:31:02.502Z,19.27
2022-11-03T09:33:29.427Z,16.23
2022-11-03T09:35:56.677Z,14.73
2022-11-03T09:38:23.285Z,14.60
2022-11-03T09:40:50.073Z,17.43
2022-11-03T09:43:17.062Z,16.87
2022-11-03T09:45:43.640Z,15.33
2022-11-03T09:48:10.893Z,16.77
2022-11-03T09:50:38.090Z,13.50
2022-11-03T09:53:05.442Z,15.03
2022-11-03T09:55:32.407Z,16.97
2022-11-03T09:58:01.895Z,16.43
2022-11-03T10:00:28.406Z,14.60
2022-11-03T10:02:55.718Z,11.10
2022-11-03T10:05:28.247Z,15.33
2022-11-03T10:07:59.962Z,18.03
2022-11-03T10:10:28.349Z,19.70
2022-11-03T10:12:55.296Z,12.03
2022-11-03T10:15:23.614Z,24.87
2022-11-03T10:17:50.719Z,18.13
2022-11-03T10:20:19.950Z,13.30
2022-11-03T10:22:47.598Z,15.37
2022-11-03T10:25:36.717Z,13.27
2022-11-03T10:28:20.588Z,14.87
2022-11-03T10:33:38.949Z,15.33
2022-11-03T10:36:23.195Z,18.17
2022-11-03T10:38:49.716Z,14.03
2022-11-03T10:41:21.669Z,13.83
2022-11-03T10:44:10.968Z,18.20
2022-11-03T10:46:54.788Z,16.93
2022-11-03T10:49:21.758Z,16.33
2022-11-03T10:51:53.395Z,14.83
2022-11-03T10:54:22.840Z,18.23
2022-11-03T10:56:50.872Z,16.20
2022-11-03T10:59:27.174Z,10.87
2022-11-03T11:01:54.149Z,15.17
2022-11-03T11:04:21.393Z,16.70
2022-11-03T11:06:48.459Z,18.57
2022-11-03T11:09:26.850Z,19.50
2022-11-03T11:12:10.379Z,13.30
2022-11-03T11:14:39.641Z,35.17
2022-11-03T11:17:06.681Z,13.00
2022-11-03T11:20:23.819Z,12.10
2022-11-03T11:22:51.049Z,11.13
2022-11-03T11:25:20.692Z,16.13
2022-11-03T11:27:47.348Z,15.13
2022-11-03T11:30:19.988Z,10.57
2022-11-03T11:32:46.611Z,12.20
2022-11-03T11:35:15.722Z,8.23
2022-11-03T11:37:42.719Z,11.83
2022-11-03T11:40:14.170Z,11.83
2022-11-03T11:43:07.278Z,8.73
2022-11-03T11:46:11.516Z,10.83
2022-11-03T11:48:39.525Z,10.63
2022-11-03T11:51:11.126Z,11.83
2022-11-03T11:53:39.477Z,13.23
2022-11-03T11:56:09.979Z,19.03
2022-11-03T11:58:42.503Z,11.00
2022-11-03T12:01:25.410Z,18.10
2022-11-03T12:03:54.944Z,10.53
2022-11-03T12:06:38.689Z,16.93
2022-11-03T12:09:27.861Z,6.80
2022-11-03T12:11:59.387Z,7.93
2022-11-03T12:14:37.516Z,16.60
2022-11-03T12:17:16.354Z,10.53
2022-11-03T12:19:47.839Z,11.23
2022-11-03T12:22:23.124Z,9.63
2022-11-03T12:25:04.304Z,15.47
2022-11-03T12:27:30.714Z,11.67
2022-11-03T12:29:59.541Z,10.47
2022-11-03T12:32:35.875Z,11.07
2022-11-03T12:35:08.141Z,9.63
2022-11-03T12:37:35.170Z,8.93
2022-11-03T12:40:01.638Z,8.27
2022-11-03T12:42:28.609Z,8.37
2022-11-03T12:44:55.888Z,11.57
2022-11-03T12:47:22.697Z,9.97
2022-11-03T12:49:49.661Z,13.13
2022-11-03T12:52:16.423Z,13.57
2022-11-03T12:54:43.082Z,8.40
2022-11-03T12:57:10.071Z,7.60
2022-11-03T12:59:36.890Z,6.70
2022-11-03T13:02:03.776Z,8.07
2022-11-03T13:04:30.431Z,10.20
2022-11-03T13:06:56.937Z,12.50
2022-11-03T13:09:23.589Z,11.53
2022-11-03T13:12:08.964Z,9.17
2022-11-03T13:14:35.552Z,12.30
2022-11-03T13:17:03.735Z,6.80
2022-11-03T13:19:30.251Z,7.90
2022-11-03T13:21:57.067Z,10.60
2022-11-03T13:24:23.510Z,8.27
2022-11-03T13:26:50.138Z,8.07
2022-11-03T13:29:16.604Z,8.63
2022-11-03T13:31:43.138Z,12.47
2022-11-03T13:34:09.668Z,13.07
2022-11-03T13:36:36.273Z,6.97
2022-11-03T13:39:02.782Z,10.70
2022-11-03T13:41:30.046Z,6.93
2022-11-03T13:43:56.784Z,12.20
2022-11-03T13:46:23.359Z,10.93
2022-11-03T13:49:40.918Z,8.90
2022-11-03T13:51:36.349Z,7.60
2022-11-03T13:59:35.763Z,11.33
2022-11-03T14:04:49.145Z,9.43
2022-11-03T14:07:15.763Z,6.13
2022-11-03T14:09:42.608Z,9.30
2022-11-03T14:12:28.032Z,12.50
2022-11-03T14:14:54.459Z,8.07
2022-11-03T14:17:20.907Z,9.03
2022-11-03T14:19:52.116Z,10.97
2022-11-03T14:22:23.622Z,6.03
2022-11-03T14:24:51.148Z,11.23
2022-11-03T14:27:18.646Z,7.30
2022-11-03T14:29:45.667Z,9.60
2022-11-03T14:32:12.518Z,11.80
2022-11-03T14:34:39.063Z,12.90
2022-11-03T14:37:06.055Z,26.67
2022-11-03T14:39:32.802Z,47.77
2022-11-03T14:42:05.330Z,31.40
2022-11-03T14:44:35.576Z,15.07
2022-11-03T14:47:03.472Z,12.10
2022-11-03T14:49:34.527Z,21.80
2022-11-03T14:52:02.430Z,14.00
2022-11-03T14:54:30.512Z,11.03
2022-11-03T14:56:57.654Z,10.63
2022-11-03T14:59:31.227Z,19.57
2022-11-03T15:01:58.828Z,29.43
2022-11-03T15:04:28.429Z,28.13
2022-11-03T15:06:55.668Z,47.27
2022-11-03T15:09:22.305Z,44.27
2022-11-03T15:11:49.371Z,29.23
2022-11-03T15:14:15.970Z,31.10
2022-11-03T15:16:43.990Z,23.10
2022-11-03T15:19:10.568Z,25.27
2022-11-03T15:21:37.115Z,16.63
2022-11-03T15:26:50.728Z,22.47
2022-11-03T15:29:17.308Z,18.90
2022-11-03T15:31:47.926Z,12.73
2022-11-03T15:34:15.423Z,26.77
2022-11-03T15:36:41.953Z,14.27
2022-11-03T15:39:08.560Z,12.60
2022-11-03T15:41:35.316Z,18.07
2022-11-03T15:44:01.862Z,16.17
2022-11-03T15:46:28.386Z,16.00
2022-11-03T15:48:56.518Z,25.87
2022-11-03T15:51:23.356Z,34.10
2022-11-03T15:53:54.957Z,29.37
2022-11-03T15:56:25.632Z,24.30
2022-11-03T15:58:52.026Z,20.83
2022-11-03T16:01:18.652Z,17.63
2022-11-03T16:03:45.604Z,16.97
2022-11-03T16:06:12.382Z,18.53
2022-11-03T16:08:38.867Z,15.80
2022-11-03T16:11:05.624Z,18.57
2022-11-03T16:13:32.099Z,17.00
2022-11-03T16:15:58.649Z,29.27
2022-11-03T16:18:27.454Z,27.03
2022-11-03T16:20:53.917Z,29.43
2022-11-03T16:23:20.354Z,26.07
2022-11-03T16:25:47.089Z,26.93
2022-11-03T16:28:13.693Z,18.53
2022-11-03T16:30:40.256Z,22.77
2022-11-03T16:33:07.734Z,18.57
2022-11-03T16:35:34.505Z,22.10
2022-11-03T16:38:01.328Z,19.73
2022-11-03T16:40:28.451Z,24.70
2022-11-03T16:42:54.900Z,22.07
2022-11-03T16:45:23.493Z,21.80
2022-11-03T16:47:51.344Z,24.83
2022-11-03T16:50:18.714Z,32.20
2022-11-03T16:52:47.493Z,25.73
2022-11-03T16:55:15.653Z,25.93
2022-11-03T16:57:42.489Z,25.30
2022-11-03T17:00:15.713Z,24.23
2022-11-03T17:02:42.741Z,16.03
2022-11-03T17:05:09.897Z,21.07
2022-11-03T17:07:36.754Z,21.13
2022-11-03T17:10:04.573Z,21.13
2022-11-03T17:12:31.001Z,28.67
2022-11-03T17:14:57.898Z,25.33
2022-11-03T17:17:26.125Z,29.13
2022-11-03T17:19:52.802Z,19.67
2022-11-03T17:22:21.357Z,23.10
2022-11-03T17:24:48.424Z,21.33
2022-11-03T17:27:18.788Z,21.53
2022-11-03T17:29:48.715Z,20.33
2022-11-03T17:32:24.757Z,27.90
2022-11-03T17:34:53.105Z,38.43
2022-11-03T17:37:20.369Z,26.17
2022-11-03T17:39:46.895Z,30.53
2022-11-03T17:42:18.999Z,26.00
2022-11-03T17:44:48.779Z,30.17
2022-11-03T17:47:16.992Z,33.93
2022-11-03T17:49:44.192Z,13.97
2022-11-03T17:52:16.583Z,19.10
2022-11-03T17:54:43.278Z,25.37
2022-11-03T17:57:15.983Z,16.13
2022-11-03T17:59:43.713Z,26.00
2022-11-03T18:02:15.547Z,23.90
2022-11-03T18:04:42.645Z,23.67
2022-11-03T18:07:17.745Z,24.20
2022-11-03T18:09:45.307Z,33.43
2022-11-03T18:12:33.348Z,26.07
2022-11-03T18:15:02.693Z,22.77
2022-11-03T18:17:29.993Z,25.33
2022-11-03T18:19:56.666Z,19.90
2022-11-03T18:22:33.243Z,25.53
2022-11-03T18:24:59.753Z,32.87
2022-11-03T18:27:26.411Z,20.57
2022-11-03T18:29:52.910Z,19.70
2022-11-03T18:32:19.565Z,18.40
2022-11-03T18:34:46.140Z,20.83
2022-11-03T18:37:12.913Z,24.37
2022-11-03T18:39:39.534Z,21.30
2022-11-03T18:42:12.744Z,29.47
2022-11-03T18:44:41.325Z,29.40
2022-11-03T18:47:08.126Z,31.63
2022-11-03T18:49:34.858Z,22.53
2022-11-03T18:52:04.585Z,26.00
2022-11-03T18:54:32.160Z,20.80
2022-11-03T18:56:59.127Z,29.13
2022-11-03T18:59:32.284Z,26.50
2022-11-03T19:01:59.112Z,31.53
2022-11-03T19:04:25.673Z,30.43
2022-11-03T19:06:52.789Z,28.80
2022-11-03T19:09:21.831Z,37.07
2022-11-03T19:11:49.111Z,31.00
2022-11-03T19:14:36.340Z,29.20
2022-11-03T19:17:22.532Z,33.27
2022-11-03T19:19:52.435Z,29.45
2022-11-03T19:22:20.876Z,32.93
2022-11-03T19:24:47.679Z,25.30
2022-11-03T19:27:17.800Z,28.50
2022-11-03T19:29:45.006Z,26.23
2022-11-03T19:32:32.394Z,30.97
2022-11-03T19:35:06.295Z,31.40
2022-11-03T19:37:35.843Z,30.20
2022-11-03T19:40:06.215Z,27.47
2022-11-03T19:42:37.048Z,31.53
2022-11-03T19:45:11.001Z,25.63
2022-11-03T19:47:47.957Z,28.13
2022-11-03T19:50:22.489Z,30.00
2022-11-03T19:52:51.854Z,30.37
2022-11-03T19:55:19.109Z,35.83
2022-11-03T19:57:45.659Z,31.37
2022-11-03T20:00:17.653Z,29.53
2022-11-03T20:02:45.005Z,27.80
2022-11-03T20:05:15.155Z,21.97
2022-11-03T20:07:42.461Z,26.97
2022-11-03T20:10:15.964Z,24.83
2022-11-03T20:12:42.516Z,23.57
2022-11-03T20:15:13.959Z,23.70
2022-11-03T20:17:40.570Z,22.27
2022-11-03T20:20:07.958Z,29.30
2022-11-03T20:22:34.435Z,30.30
2022-11-03T20:25:03.331Z,26.70
2022-11-03T20:27:29.991Z,31.90
2022-11-03T20:29:56.529Z,28.40
2022-11-03T20:32:23.163Z,29.67
2022-11-03T20:34:49.770Z,31.70
2022-11-03T20:37:18.827Z,28.30
2022-11-03T20:39:46.091Z,27.67
2022-11-03T20:42:23.666Z,28.60
2022-11-03T20:44:50.532Z,21.53
2022-11-03T20:47:17.858Z,33.07
2022-11-03T20:49:47.626Z,27.63
2022-11-03T20:52:14.929Z,34.43
2022-11-03T20:54:44.711Z,27.70
2022-11-03T20:57:14.282Z,29.80
2022-11-03T20:59:41.305Z,30.50
2022-11-03T21:02:12.664Z,32.03
2022-11-03T21:04:40.275Z,25.47
2022-11-03T21:07:06.814Z,28.70
2022-11-03T21:09:33.302Z,35.23
2022-11-03T21:11:59.791Z,33.10
2022-11-03T21:14:32.812Z,29.13
2022-11-03T21:17:17.813Z,31.03
2022-11-03T21:20:00.190Z,28.07
2022-11-03T21:25:19.393Z,33.03
2022-11-03T21:27:45.868Z,30.33
2022-11-03T21:30:14.208Z,28.00
2022-11-03T21:32:40.916Z,26.00
2022-11-03T21:35:08.196Z,24.37
2022-11-03T21:37:34.714Z,29.43
2022-11-03T21:40:01.130Z,27.60
2022-11-03T21:42:46.212Z,25.03
2022-11-03T21:45:13.384Z,25.03
2022-11-03T21:48:00.208Z,26.87
2022-11-03T21:50:26.737Z,31.80
2022-11-03T21:52:53.163Z,32.30
2022-11-03T21:55:19.744Z,28.57
2022-11-03T21:57:46.315Z,25.03
2022-11-03T22:00:13.370Z,30.17
2022-11-03T22:02:39.874Z,40.20
2022-11-03T22:05:10.612Z,30.47
2022-11-03T22:07:37.316Z,25.00
2022-11-03T22:10:04.122Z,27.60
2022-11-03T22:12:30.730Z,30.43
2022-11-03T22:15:15.559Z,26.90
2022-11-03T22:17:44.416Z,43.57
2022-11-03T22:20:29.602Z,31.47
2022-11-03T22:23:18.637Z,32.70
2022-11-03T22:26:03.960Z,29.50
2022-11-03T22:28:30.635Z,36.37
2022-11-03T22:31:15.599Z,31.07
2022-11-03T22:34:00.934Z,35.27
2022-11-03T22:36:29.332Z,43.10
2022-11-03T22:39:14.490Z,33.33
2022-11-03T22:42:04.990Z,35.03
2022-11-03T22:44:51.538Z,32.93
2022-11-03T22:47:18.838Z,28.83
2022-11-03T22:49:45.717Z,30.57
2022-11-03T22:52:12.127Z,30.83
2022-11-03T22:54:38.560Z,27.40
2022-11-03T22:57:05.028Z,27.60
2022-11-03T22:59:31.495Z,26.50
2022-11-03T23:01:58.055Z,28.47
2022-11-03T23:04:24.703Z,26.07
2022-11-03T23:06:51.278Z,26.67
2022-11-03T23:09:17.712Z,24.80
2022-11-03T23:11:44.267Z,27.70
2022-11-03T23:14:11.452Z,26.10
2022-11-03T23:16:40.793Z,27.47
2022-11-03T23:19:27.873Z,25.80
2022-11-03T23:21:54.416Z,29.73
2022-11-03T23:24:43.943Z,25.27
2022-11-03T23:27:12.521Z,25.00
2022-11-03T23:29:39.363Z,28.30
2022-11-03T23:32:06.165Z,27.67
2022-11-03T23:34:34.765Z,26.67
2022-11-03T23:37:01.487Z,29.20
2022-11-03T23:39:27.914Z,31.33
2022-11-03T23:41:54.480Z,28.13
2022-11-03T23:44:21.038Z,27.53
2022-11-03T23:47:05.924Z,24.20
2022-11-03T23:49:32.469Z,24.17
2022-11-03T23:51:58.937Z,26.77
2022-11-03T23:54:27.488Z,25.00
2022-11-03T23:57:12.742Z,26.67
2022-11-03T23:59:39.518Z,26.67
